Meteorología y climatología de Navarra
Datos de la estación - Meteo Navarra

Estación de Estella GN

Altitud 486 m.


Datos desde el 02/08/2020 hasta el 03/08/2020 en horario solar
Los datos son PROVISIONALES

Anterior Página 1 de 1 Siguiente Descargar: Formato para Excel 2000 o superior   Formato csv   Formato para OpenOffice Calc
Fecha Temperatura Humedad relativa Radiación global Insolación Precipitación Vel. viento 10 m Vel. viento 10 m Dir. viento 10 m
ºC % W/m² s l/m² m/s km/h º
02/08/2020 0:00 19.2 75 0.0 0 0.0 1.1 3.9 295
02/08/2020 0:10 19.1 75 0.0 0 0.0 0.8 2.8 317
02/08/2020 0:20 19.1 75 0.0 0 0.0 1.0 3.7 329
02/08/2020 0:30 19.1 75 0.0 0 0.0 1.3 4.6 3
02/08/2020 0:40 19.0 76 0.0 0 0.0 1.6 5.7 4
02/08/2020 0:50 18.8 76 0.0 0 0.0 1.5 5.5 313
02/08/2020 1:00 18.6 76 0.0 0 0.0 2.0 7.3 325
02/08/2020 1:10 18.5 77 0.0 0 0.0 1.4 5.1 307
02/08/2020 1:20 18.3 77 0.0 0 0.0 1.1 4.1 318
02/08/2020 1:30 18.2 77 0.0 0 0.0 1.3 4.7 292
02/08/2020 1:40 18.0 77 0.0 0 0.0 1.4 4.9 313
02/08/2020 1:50 18.0 77 0.0 0 0.0 1.9 6.7 311
02/08/2020 2:00 17.9 77 0.0 0 0.0 1.2 4.2 347
02/08/2020 2:10 17.7 78 0.0 0 0.0 1.1 4.1 349
02/08/2020 2:20 17.5 79 0.0 0 0.0 1.4 5.1 323
02/08/2020 2:30 17.5 79 0.0 0 0.0 1.1 3.8 314
02/08/2020 2:40 17.5 79 0.0 0 0.0 1.3 4.7 294
02/08/2020 2:50 17.4 80 0.0 0 0.0 1.3 4.6 298
02/08/2020 3:00 17.4 80 0.0 0 0.0 0.8 2.8 351
02/08/2020 3:10 17.2 81 0.0 0 0.0 0.9 3.3 276
02/08/2020 3:20 17.0 81 0.0 0 0.0 0.3 0.9 3
02/08/2020 3:30 16.3 84 0.0 0 0.0 0.3 1.2 59
02/08/2020 3:40 16.2 87 0.0 0 0.0 0.7 2.4 44
02/08/2020 3:50 16.0 86 0.0 0 0.0 0.2 0.8 56
02/08/2020 4:00 15.8 89 0.0 0 0.0 0.7 2.6 333
02/08/2020 4:10 16.3 86 0.0 0 0.0 0.8 3.0 292
02/08/2020 4:20 16.5 84 0.0 0 0.0 0.7 2.7 353
02/08/2020 4:30 16.5 85 0.0 0 0.0 0.7 2.4 4
02/08/2020 4:40 16.4 85 0.0 0 0.0 1.0 3.5 274
02/08/2020 4:50 16.8 83 0.0 0 0.0 0.9 3.3 250
02/08/2020 5:00 16.8 82 0.0 0 0.0 0.4 1.4 222
02/08/2020 5:10 16.3 85 0.0 0 0.0 0.7 2.6 33
02/08/2020 5:20 16.2 85 0.0 0 0.0 0.7 2.6 356
02/08/2020 5:30 16.4 84 17.1 0 0.0 0.9 3.4 30
02/08/2020 5:40 16.7 84 29.7 0 0.0 1.0 3.7 13
02/08/2020 5:50 17.1 83 41.3 0 0.0 0.9 3.3 312
02/08/2020 6:00 17.4 80 48.9 0 0.0 0.8 3.0 301
02/08/2020 6:10 17.5 79 55.4 0 0.0 1.0 3.5 300
02/08/2020 6:20 17.5 78 76.1 46 0.0 1.1 3.9 304
02/08/2020 6:30 17.8 76 104.8 60 0.0 1.3 4.8 278
02/08/2020 6:40 18.3 74 150.1 212 0.0 1.0 3.4 301
02/08/2020 6:50 18.6 72 155.7 128 0.0 0.6 2.1 295
02/08/2020 7:00 18.9 71 257.2 512 0.0 1.4 4.9 320
02/08/2020 7:10 19.3 70 216.1 346 0.0 1.3 4.6 309
02/08/2020 7:20 19.4 70 244.9 310 0.0 1.3 4.6 306
02/08/2020 7:30 19.1 71 137.3 12 0.0 1.5 5.2 310
02/08/2020 7:40 18.8 72 168.1 12 0.0 1.7 6.2 284
02/08/2020 7:50 18.9 71 200.8 0 0.0 1.7 5.9 285
02/08/2020 8:00 19.4 69 321.1 292 0.0 0.9 3.4 292
02/08/2020 8:10 20.3 65 485.2 600 0.0 1.9 6.7 307
02/08/2020 8:20 20.8 63 475.7 522 0.0 1.6 5.6 322
02/08/2020 8:30 20.6 63 310.9 168 0.0 1.8 6.6 302
02/08/2020 8:40 20.2 65 270.8 34 0.0 1.6 5.7 319
02/08/2020 8:50 20.0 66 308.8 134 0.0 1.9 6.8 317
02/08/2020 9:00 20.3 65 447.0 548 0.0 1.8 6.5 315
02/08/2020 9:10 20.9 61 314.7 126 0.0 1.9 6.9 321
02/08/2020 9:20 21.0 60 489.9 540 0.0 1.9 6.8 344
02/08/2020 9:30 22.1 57 767.9 600 0.0 1.8 6.3 329
02/08/2020 9:40 21.7 56 412.1 222 0.0 2.0 7.3 296
02/08/2020 9:50 21.2 58 411.8 210 0.0 1.7 6.2 306
02/08/2020 10:00 21.1 59 517.5 600 0.0 2.2 7.9 307
02/08/2020 10:10 20.9 60 599.5 600 0.0 2.4 8.6 287
02/08/2020 10:20 21.4 60 932.0 600 0.0 2.3 8.1 296
02/08/2020 10:30 21.9 58 562.0 600 0.0 2.2 7.8 319
02/08/2020 10:40 21.1 60 526.5 600 0.0 2.3 8.2 299
02/08/2020 10:50 21.2 59 482.2 360 0.0 1.8 6.3 300
02/08/2020 11:00 21.3 57 426.0 0 0.0 1.7 6.0 307
02/08/2020 11:10 21.6 56 436.3 0 0.0 1.9 7.0 312
02/08/2020 11:20 21.7 56 500.0 426 0.0 2.4 8.5 320
02/08/2020 11:30 22.2 55 484.2 300 0.0 2.0 7.2 347
02/08/2020 11:40 22.0 55 457.2 0 0.0 2.3 8.3 325
02/08/2020 11:50 22.0 55 490.9 210 0.0 2.4 8.6 306
02/08/2020 12:00 22.2 55 582.0 600 0.0 2.3 8.3 312
02/08/2020 12:10 22.5 54 922.0 600 0.0 2.7 9.7 305
02/08/2020 12:20 23.1 52 735.6 600 0.0 2.4 8.6 298
02/08/2020 12:30 23.2 52 1014.0 600 0.0 2.3 8.3 306
02/08/2020 12:40 24.4 49 988.0 600 0.0 2.2 7.9 317
02/08/2020 12:50 23.7 51 683.0 600 0.0 2.3 8.3 318
02/08/2020 13:00 23.4 51 561.6 528 0.0 1.8 6.3 324
02/08/2020 13:10 22.9 52 402.6 0 0.0 2.0 7.3 314
02/08/2020 13:20 22.7 54 433.6 88 0.0 1.4 5.1 343
02/08/2020 13:30 22.4 54 635.9 600 0.0 2.1 7.5 309
02/08/2020 13:40 22.6 52 425.5 28 0.0 2.3 8.2 351
02/08/2020 13:50 22.0 54 441.5 192 0.0 2.4 8.5 323
02/08/2020 14:00 21.4 56 443.3 162 0.0 2.3 8.4 323
02/08/2020 14:10 22.1 55 712.6 600 0.0 2.0 7.2 325
02/08/2020 14:20 23.3 51 656.2 600 0.0 1.4 5.1 352
02/08/2020 14:30 22.9 51 734.2 600 0.0 2.2 7.8 1
02/08/2020 14:40 23.1 51 769.2 600 0.0 1.7 6.0 2
02/08/2020 14:50 23.0 52 862.0 600 0.0 3.0 10.8 346
02/08/2020 15:00 23.3 50 787.7 600 0.0 2.1 7.6 8
02/08/2020 15:10 23.0 52 676.9 600 0.0 2.8 10.1 334
02/08/2020 15:20 22.7 52 683.3 600 0.0 2.6 9.3 353
02/08/2020 15:30 22.4 52 614.3 600 0.0 3.1 11.2 340
02/08/2020 15:40 22.2 53 473.0 600 0.0 2.4 8.5 346
02/08/2020 15:50 21.5 54 331.3 70 0.0 1.8 6.6 346
02/08/2020 16:00 21.1 55 298.9 42 0.0 2.6 9.2 323
02/08/2020 16:10 21.1 55 327.9 296 0.0 1.9 6.7 346
02/08/2020 16:20 21.0 55 349.9 542 0.0 1.6 5.9 355
02/08/2020 16:30 21.1 55 378.8 600 0.0 2.4 8.5 340
02/08/2020 16:40 20.9 55 336.6 504 0.0 2.1 7.5 322
02/08/2020 16:50 21.0 55 342.3 594 0.0 2.3 8.2 333
02/08/2020 17:00 21.6 54 465.2 592 0.0 1.6 5.9 316
02/08/2020 17:10 21.8 53 407.6 560 0.0 1.7 6.0 301
02/08/2020 17:20 21.5 53 272.3 342 0.0 2.1 7.6 319
02/08/2020 17:30 20.8 56 272.6 466 0.0 2.4 8.5 302
02/08/2020 17:40 20.9 55 230.9 422 0.0 2.5 8.9 322
02/08/2020 17:50 20.7 58 77.2 16 0.0 1.8 6.3 306
02/08/2020 18:00 20.0 60 83.5 32 0.0 2.4 8.7 323
02/08/2020 18:10 19.8 61 30.3 0 0.0 1.5 5.4 312
02/08/2020 18:20 19.4 62 20.0 0 0.0 1.1 3.9 295
02/08/2020 18:30 19.3 61 26.8 0 0.0 1.8 6.4 313
02/08/2020 18:40 19.1 62 43.8 0 0.0 1.6 5.8 312
02/08/2020 18:50 18.7 63 40.0 0 0.0 1.4 5.2 282
02/08/2020 19:00 18.3 65 25.9 0 0.0 2.0 7.2 283
02/08/2020 19:10 17.9 67 7.7 0 0.0 1.8 6.6 292
02/08/2020 19:20 17.9 67 0.0 0 0.0 1.4 5.2 307
02/08/2020 19:30 17.9 68 0.0 0 0.0 1.4 5.2 316
02/08/2020 19:40 17.9 69 0.0 0 0.0 1.5 5.4 339
02/08/2020 19:50 17.7 70 0.0 0 0.0 1.2 4.2 296
02/08/2020 20:00 17.6 71 0.0 0 0.0 1.4 4.9 310
02/08/2020 20:10 17.5 72 0.0 0 0.0 1.1 3.9 5
02/08/2020 20:20 17.5 70 0.0 0 0.0 1.1 3.8 316
02/08/2020 20:30 17.7 69 0.0 0 0.0 1.0 3.6 317
02/08/2020 20:40 17.5 69 0.0 0 0.0 1.1 3.9 320
02/08/2020 20:50 17.2 69 0.0 0 0.0 1.4 4.9 297
02/08/2020 21:00 17.1 69 0.0 0 0.0 1.1 4.0 276
02/08/2020 21:10 17.0 69 0.0 0 0.0 1.7 6.0 294
02/08/2020 21:20 16.8 70 0.0 0 0.0 1.4 5.0 289
02/08/2020 21:30 16.9 69 0.0 0 0.0 1.0 3.7 290
02/08/2020 21:40 16.8 70 0.0 0 0.0 0.8 2.8 354
02/08/2020 21:50 16.9 70 0.0 0 0.0 1.1 4.0 303
02/08/2020 22:00 17.0 70 0.0 0 0.0 0.8 2.7 313
02/08/2020 22:10 16.8 70 0.0 0 0.0 0.9 3.1 12
02/08/2020 22:20 16.8 69 0.0 0 0.0 0.8 3.0 44
02/08/2020 22:30 16.6 70 0.0 0 0.0 0.7 2.3 307
02/08/2020 22:40 16.5 71 0.0 0 0.0 0.8 3.0 297
02/08/2020 22:50 16.6 71 0.0 0 0.0 0.6 2.1 349
02/08/2020 23:00 16.5 72 0.0 0 0.0 0.7 2.6 280
02/08/2020 23:10 16.5 72 0.0 0 0.0 1.0 3.5 303
02/08/2020 23:20 16.4 73 0.0 0 0.0 0.5 1.8 12
02/08/2020 23:30 16.3 73 0.0 0 0.0 1.3 4.5 348
02/08/2020 23:40 16.3 73 0.0 0 0.0 0.8 2.8 15
02/08/2020 23:50 16.4 73 0.0 0 0.0 1.2 4.4 325
Anterior Página 1 de 1 Siguiente

NOTA: Tipo de datos según el color:
   - Valores diarios o 10 minutos correctos
   - Valores diarios calculados a partir de un número de datos 10 minutos menor que 144 y mayor que 120, o de un número de datos semihorarios menor que 48 y mayor que 40 (caso de las estaciones de INTIA y del Ministerio)
   - Valores diez minutos estimados


Contacto        Enlaces        Aviso legal